sensor_id;sensor_type;location;lat;lon;timestamp;P1;P2;P0
74333;PMS5003;62753;40.394;-80.022;2023-04-16T00:00:48;12;10;
74333;PMS5003;62753;40.394;-80.022;2023-04-16T00:03:13;11;11;
74333;PMS5003;62753;40.394;-80.022;2023-04-16T00:05:39;10;9;
74333;PMS5003;62753;40.394;-80.022;2023-04-16T00:08:04;11;11;
74333;PMS5003;62753;40.394;-80.022;2023-04-16T00:10:29;10;10;
74333;PMS5003;62753;40.394;-80.022;2023-04-16T00:12:55;11;11;
74333;PMS5003;62753;40.394;-80.022;2023-04-16T00:15:20;10;9;
74333;PMS5003;62753;40.394;-80.022;2023-04-16T00:17:45;10;10;
74333;PMS5003;62753;40.394;-80.022;2023-04-16T00:20:10;11;10;
74333;PMS5003;62753;40.394;-80.022;2023-04-16T00:22:36;10;10;
74333;PMS5003;62753;40.394;-80.022;2023-04-16T00:25:00;12;11;
74333;PMS5003;62753;40.394;-80.022;2023-04-16T00:27:25;11;11;
74333;PMS5003;62753;40.394;-80.022;2023-04-16T00:29:51;12;12;
74333;PMS5003;62753;40.394;-80.022;2023-04-16T00:32:16;13;13;
74333;PMS5003;62753;40.394;-80.022;2023-04-16T00:34:41;15;14;
74333;PMS5003;62753;40.394;-80.022;2023-04-16T00:37:06;12;12;
74333;PMS5003;62753;40.394;-80.022;2023-04-16T00:39:32;15;15;
74333;PMS5003;62753;40.394;-80.022;2023-04-16T00:41:58;12;12;
74333;PMS5003;62753;40.394;-80.022;2023-04-16T00:44:23;12;12;
74333;PMS5003;62753;40.394;-80.022;2023-04-16T00:46:48;38;32;
74333;PMS5003;62753;40.394;-80.022;2023-04-16T00:49:14;48;45;
74333;PMS5003;62753;40.394;-80.022;2023-04-16T00:51:39;23;21;
74333;PMS5003;62753;40.394;-80.022;2023-04-16T00:54:04;16;16;
74333;PMS5003;62753;40.394;-80.022;2023-04-16T00:56:29;17;16;
74333;PMS5003;62753;40.394;-80.022;2023-04-16T00:58:55;13;12;
74333;PMS5003;62753;40.394;-80.022;2023-04-16T01:01:21;22;21;
74333;PMS5003;62753;40.394;-80.022;2023-04-16T01:03:46;24;24;
74333;PMS5003;62753;40.394;-80.022;2023-04-16T01:06:11;21;19;
74333;PMS5003;62753;40.394;-80.022;2023-04-16T01:08:37;15;15;
74333;PMS5003;62753;40.394;-80.022;2023-04-16T01:11:02;28;26;
74333;PMS5003;62753;40.394;-80.022;2023-04-16T01:13:27;21;20;
74333;PMS5003;62753;40.394;-80.022;2023-04-16T01:15:53;18;17;
74333;PMS5003;62753;40.394;-80.022;2023-04-16T01:18:18;24;19;
74333;PMS5003;62753;40.394;-80.022;2023-04-16T01:20:43;15;14;
74333;PMS5003;62753;40.394;-80.022;2023-04-16T01:23:08;17;17;
74333;PMS5003;62753;40.394;-80.022;2023-04-16T01:25:33;16;16;
74333;PMS5003;62753;40.394;-80.022;2023-04-16T01:27:58;16;16;
74333;PMS5003;62753;40.394;-80.022;2023-04-16T01:30:24;16;14;
74333;PMS5003;62753;40.394;-80.022;2023-04-16T01:32:49;20;17;
74333;PMS5003;62753;40.394;-80.022;2023-04-16T01:35:15;17;17;
74333;PMS5003;62753;40.394;-80.022;2023-04-16T01:37:40;19;18;
74333;PMS5003;62753;40.394;-80.022;2023-04-16T01:40:06;17;15;
74333;PMS5003;62753;40.394;-80.022;2023-04-16T01:42:31;17;16;
74333;PMS5003;62753;40.394;-80.022;2023-04-16T01:44:57;17;14;
74333;PMS5003;62753;40.394;-80.022;2023-04-16T01:47:22;13;12;
74333;PMS5003;62753;40.394;-80.022;2023-04-16T01:49:48;12;12;
74333;PMS5003;62753;40.394;-80.022;2023-04-16T01:52:14;17;13;
74333;PMS5003;62753;40.394;-80.022;2023-04-16T01:54:39;11;11;
74333;PMS5003;62753;40.394;-80.022;2023-04-16T01:57:04;12;11;
74333;PMS5003;62753;40.394;-80.022;2023-04-16T01:59:29;11;11;
74333;PMS5003;62753;40.394;-80.022;2023-04-16T02:01:55;15;14;
74333;PMS5003;62753;40.394;-80.022;2023-04-16T02:04:20;11;11;
74333;PMS5003;62753;40.394;-80.022;2023-04-16T02:06:45;12;11;
74333;PMS5003;62753;40.394;-80.022;2023-04-16T02:09:11;19;16;
74333;PMS5003;62753;40.394;-80.022;2023-04-16T02:11:36;14;13;
74333;PMS5003;62753;40.394;-80.022;2023-04-16T02:14:01;10;10;
74333;PMS5003;62753;40.394;-80.022;2023-04-16T02:16:27;11;11;
74333;PMS5003;62753;40.394;-80.022;2023-04-16T02:18:52;10;10;
74333;PMS5003;62753;40.394;-80.022;2023-04-16T02:21:17;11;10;
74333;PMS5003;62753;40.394;-80.022;2023-04-16T02:23:43;12;12;
74333;PMS5003;62753;40.394;-80.022;2023-04-16T02:26:08;12;10;
74333;PMS5003;62753;40.394;-80.022;2023-04-16T02:28:33;13;12;
74333;PMS5003;62753;40.394;-80.022;2023-04-16T02:30:58;12;12;
74333;PMS5003;62753;40.394;-80.022;2023-04-16T02:33:24;16;15;
74333;PMS5003;62753;40.394;-80.022;2023-04-16T02:35:49;13;13;
74333;PMS5003;62753;40.394;-80.022;2023-04-16T02:38:14;14;14;
74333;PMS5003;62753;40.394;-80.022;2023-04-16T02:40:40;15;15;
74333;PMS5003;62753;40.394;-80.022;2023-04-16T02:43:05;20;20;
74333;PMS5003;62753;40.394;-80.022;2023-04-16T02:45:31;20;19;
74333;PMS5003;62753;40.394;-80.022;2023-04-16T02:47:57;21;20;
74333;PMS5003;62753;40.394;-80.022;2023-04-16T02:50:22;20;19;
74333;PMS5003;62753;40.394;-80.022;2023-04-16T02:52:47;22;19;
74333;PMS5003;62753;40.394;-80.022;2023-04-16T02:55:13;21;21;
74333;PMS5003;62753;40.394;-80.022;2023-04-16T02:57:38;20;15;
74333;PMS5003;62753;40.394;-80.022;2023-04-16T03:00:04;25;17;
74333;PMS5003;62753;40.394;-80.022;2023-04-16T03:02:29;18;16;
74333;PMS5003;62753;40.394;-80.022;2023-04-16T03:04:54;16;16;
74333;PMS5003;62753;40.394;-80.022;2023-04-16T03:07:19;20;20;
74333;PMS5003;62753;40.394;-80.022;2023-04-16T03:09:45;22;20;
74333;PMS5003;62753;40.394;-80.022;2023-04-16T03:12:10;20;20;
74333;PMS5003;62753;40.394;-80.022;2023-04-16T03:14:35;20;17;
74333;PMS5003;62753;40.394;-80.022;2023-04-16T03:17:01;18;17;
74333;PMS5003;62753;40.394;-80.022;2023-04-16T03:19:26;18;17;
74333;PMS5003;62753;40.394;-80.022;2023-04-16T03:21:52;16;14;
74333;PMS5003;62753;40.394;-80.022;2023-04-16T03:24:17;17;16;
74333;PMS5003;62753;40.394;-80.022;2023-04-16T03:26:43;20;19;
74333;PMS5003;62753;40.394;-80.022;2023-04-16T03:29:08;18;18;
74333;PMS5003;62753;40.394;-80.022;2023-04-16T03:31:34;17;17;
74333;PMS5003;62753;40.394;-80.022;2023-04-16T03:33:59;18;16;
74333;PMS5003;62753;40.394;-80.022;2023-04-16T03:36:25;23;21;
74333;PMS5003;62753;40.394;-80.022;2023-04-16T03:38:51;19;19;
74333;PMS5003;62753;40.394;-80.022;2023-04-16T03:41:16;21;19;
74333;PMS5003;62753;40.394;-80.022;2023-04-16T03:43:42;19;19;
74333;PMS5003;62753;40.394;-80.022;2023-04-16T03:46:07;20;18;
74333;PMS5003;62753;40.394;-80.022;2023-04-16T03:48:32;21;20;
74333;PMS5003;62753;40.394;-80.022;2023-04-16T03:50:58;17;16;
74333;PMS5003;62753;40.394;-80.022;2023-04-16T03:53:23;23;19;
74333;PMS5003;62753;40.394;-80.022;2023-04-16T03:55:49;19;19;
74333;PMS5003;62753;40.394;-80.022;2023-04-16T03:58:13;18;18;
74333;PMS5003;62753;40.394;-80.022;2023-04-16T04:00:40;21;20;
74333;PMS5003;62753;40.394;-80.022;2023-04-16T04:03:05;19;19;
74333;PMS5003;62753;40.394;-80.022;2023-04-16T04:05:34;22;20;
74333;PMS5003;62753;40.394;-80.022;2023-04-16T04:07:56;21;18;
74333;PMS5003;62753;40.394;-80.022;2023-04-16T04:10:21;16;16;
74333;PMS5003;62753;40.394;-80.022;2023-04-16T04:12:46;21;19;
74333;PMS5003;62753;40.394;-80.022;2023-04-16T04:15:12;20;20;
74333;PMS5003;62753;40.394;-80.022;2023-04-16T04:17:37;21;21;
74333;PMS5003;62753;40.394;-80.022;2023-04-16T04:20:03;16;15;
74333;PMS5003;62753;40.394;-80.022;2023-04-16T04:22:29;19;17;
74333;PMS5003;62753;40.394;-80.022;2023-04-16T04:24:54;23;23;
74333;PMS5003;62753;40.394;-80.022;2023-04-16T04:27:20;20;19;
74333;PMS5003;62753;40.394;-80.022;2023-04-16T04:29:45;27;23;
74333;PMS5003;62753;40.394;-80.022;2023-04-16T04:32:10;27;23;
74333;PMS5003;62753;40.394;-80.022;2023-04-16T04:34:36;23;22;
74333;PMS5003;62753;40.394;-80.022;2023-04-16T04:37:01;26;23;
74333;PMS5003;62753;40.394;-80.022;2023-04-16T04:39:27;23;23;
74333;PMS5003;62753;40.394;-80.022;2023-04-16T04:41:53;30;26;
74333;PMS5003;62753;40.394;-80.022;2023-04-16T04:44:18;24;23;
74333;PMS5003;62753;40.394;-80.022;2023-04-16T04:46:43;27;23;
74333;PMS5003;62753;40.394;-80.022;2023-04-16T04:49:09;23;22;
74333;PMS5003;62753;40.394;-80.022;2023-04-16T04:51:34;22;21;
74333;PMS5003;62753;40.394;-80.022;2023-04-16T04:53:59;22;21;
74333;PMS5003;62753;40.394;-80.022;2023-04-16T04:56:25;25;23;
74333;PMS5003;62753;40.394;-80.022;2023-04-16T04:58:50;26;25;
74333;PMS5003;62753;40.394;-80.022;2023-04-16T05:01:15;27;23;
74333;PMS5003;62753;40.394;-80.022;2023-04-16T05:03:41;25;22;
74333;PMS5003;62753;40.394;-80.022;2023-04-16T05:06:06;22;21;
74333;PMS5003;62753;40.394;-80.022;2023-04-16T05:08:31;19;19;
74333;PMS5003;62753;40.394;-80.022;2023-04-16T05:10:56;23;22;
74333;PMS5003;62753;40.394;-80.022;2023-04-16T05:13:22;23;23;
74333;PMS5003;62753;40.394;-80.022;2023-04-16T05:15:47;27;24;
74333;PMS5003;62753;40.394;-80.022;2023-04-16T05:18:13;26;23;
74333;PMS5003;62753;40.394;-80.022;2023-04-16T05:20:38;24;23;
74333;PMS5003;62753;40.394;-80.022;2023-04-16T05:23:03;27;26;
74333;PMS5003;62753;40.394;-80.022;2023-04-16T05:25:29;23;22;
74333;PMS5003;62753;40.394;-80.022;2023-04-16T05:27:54;22;21;
74333;PMS5003;62753;40.394;-80.022;2023-04-16T05:30:20;34;29;
74333;PMS5003;62753;40.394;-80.022;2023-04-16T05:32:45;23;22;
74333;PMS5003;62753;40.394;-80.022;2023-04-16T05:35:10;29;27;
74333;PMS5003;62753;40.394;-80.022;2023-04-16T05:37:36;27;25;
74333;PMS5003;62753;40.394;-80.022;2023-04-16T05:40:01;29;27;
74333;PMS5003;62753;40.394;-80.022;2023-04-16T05:42:27;27;27;
74333;PMS5003;62753;40.394;-80.022;2023-04-16T05:44:52;28;26;
74333;PMS5003;62753;40.394;-80.022;2023-04-16T05:47:18;33;27;
74333;PMS5003;62753;40.394;-80.022;2023-04-16T05:49:44;24;24;
74333;PMS5003;62753;40.394;-80.022;2023-04-16T05:52:10;32;28;
74333;PMS5003;62753;40.394;-80.022;2023-04-16T05:54:35;25;25;
74333;PMS5003;62753;40.394;-80.022;2023-04-16T05:57:00;25;22;
74333;PMS5003;62753;40.394;-80.022;2023-04-16T05:59:26;34;27;
74333;PMS5003;62753;40.394;-80.022;2023-04-16T06:01:52;28;26;
74333;PMS5003;62753;40.394;-80.022;2023-04-16T06:04:17;27;25;
74333;PMS5003;62753;40.394;-80.022;2023-04-16T06:06:42;31;29;
74333;PMS5003;62753;40.394;-80.022;2023-04-16T06:09:07;30;26;
74333;PMS5003;62753;40.394;-80.022;2023-04-16T06:11:32;25;24;
74333;PMS5003;62753;40.394;-80.022;2023-04-16T06:13:58;27;25;
74333;PMS5003;62753;40.394;-80.022;2023-04-16T06:16:24;30;28;
74333;PMS5003;62753;40.394;-80.022;2023-04-16T06:18:49;21;21;
74333;PMS5003;62753;40.394;-80.022;2023-04-16T06:21:15;29;24;
74333;PMS5003;62753;40.394;-80.022;2023-04-16T06:23:40;26;26;
74333;PMS5003;62753;40.394;-80.022;2023-04-16T06:26:05;29;24;
74333;PMS5003;62753;40.394;-80.022;2023-04-16T06:28:31;25;23;
74333;PMS5003;62753;40.394;-80.022;2023-04-16T06:30:56;30;27;
74333;PMS5003;62753;40.394;-80.022;2023-04-16T06:33:21;26;24;
74333;PMS5003;62753;40.394;-80.022;2023-04-16T06:35:47;26;24;
74333;PMS5003;62753;40.394;-80.022;2023-04-16T06:38:13;23;22;
74333;PMS5003;62753;40.394;-80.022;2023-04-16T06:40:38;23;19;
74333;PMS5003;62753;40.394;-80.022;2023-04-16T06:43:04;23;19;
74333;PMS5003;62753;40.394;-80.022;2023-04-16T06:45:29;21;21;
74333;PMS5003;62753;40.394;-80.022;2023-04-16T06:47:55;21;20;
74333;PMS5003;62753;40.394;-80.022;2023-04-16T06:50:20;23;20;
74333;PMS5003;62753;40.394;-80.022;2023-04-16T06:52:46;23;23;
74333;PMS5003;62753;40.394;-80.022;2023-04-16T06:55:11;21;21;
74333;PMS5003;62753;40.394;-80.022;2023-04-16T06:57:37;23;22;
74333;PMS5003;62753;40.394;-80.022;2023-04-16T07:00:02;22;20;
74333;PMS5003;62753;40.394;-80.022;2023-04-16T07:02:27;23;21;
74333;PMS5003;62753;40.394;-80.022;2023-04-16T07:04:53;22;20;
74333;PMS5003;62753;40.394;-80.022;2023-04-16T07:07:18;20;19;
74333;PMS5003;62753;40.394;-80.022;2023-04-16T07:09:44;24;23;
74333;PMS5003;62753;40.394;-80.022;2023-04-16T07:12:09;21;21;
74333;PMS5003;62753;40.394;-80.022;2023-04-16T07:14:35;18;18;
74333;PMS5003;62753;40.394;-80.022;2023-04-16T07:17:00;25;21;
74333;PMS5003;62753;40.394;-80.022;2023-04-16T07:19:25;24;18;
74333;PMS5003;62753;40.394;-80.022;2023-04-16T07:21:51;21;21;
74333;PMS5003;62753;40.394;-80.022;2023-04-16T07:24:16;20;20;
74333;PMS5003;62753;40.394;-80.022;2023-04-16T07:26:41;21;20;
74333;PMS5003;62753;40.394;-80.022;2023-04-16T07:29:07;21;21;
74333;PMS5003;62753;40.394;-80.022;2023-04-16T07:31:32;19;19;
74333;PMS5003;62753;40.394;-80.022;2023-04-16T07:33:58;22;21;
74333;PMS5003;62753;40.394;-80.022;2023-04-16T07:36:23;21;19;
74333;PMS5003;62753;40.394;-80.022;2023-04-16T07:38:49;22;21;
74333;PMS5003;62753;40.394;-80.022;2023-04-16T07:41:14;26;22;
74333;PMS5003;62753;40.394;-80.022;2023-04-16T07:43:40;24;23;
74333;PMS5003;62753;40.394;-80.022;2023-04-16T07:46:05;22;19;
74333;PMS5003;62753;40.394;-80.022;2023-04-16T07:48:30;22;20;
74333;PMS5003;62753;40.394;-80.022;2023-04-16T07:50:56;20;20;
74333;PMS5003;62753;40.394;-80.022;2023-04-16T07:53:21;21;20;
74333;PMS5003;62753;40.394;-80.022;2023-04-16T07:55:47;22;20;
74333;PMS5003;62753;40.394;-80.022;2023-04-16T07:58:13;22;22;
74333;PMS5003;62753;40.394;-80.022;2023-04-16T08:00:39;22;21;
74333;PMS5003;62753;40.394;-80.022;2023-04-16T08:03:04;23;21;
74333;PMS5003;62753;40.394;-80.022;2023-04-16T08:05:29;18;18;
74333;PMS5003;62753;40.394;-80.022;2023-04-16T08:07:54;17;17;
74333;PMS5003;62753;40.394;-80.022;2023-04-16T08:10:20;18;17;
74333;PMS5003;62753;40.394;-80.022;2023-04-16T08:12:45;21;20;
74333;PMS5003;62753;40.394;-80.022;2023-04-16T08:15:10;18;17;
74333;PMS5003;62753;40.394;-80.022;2023-04-16T08:17:36;17;17;
74333;PMS5003;62753;40.394;-80.022;2023-04-16T08:20:01;20;20;
74333;PMS5003;62753;40.394;-80.022;2023-04-16T08:22:27;22;22;
74333;PMS5003;62753;40.394;-80.022;2023-04-16T08:24:52;20;17;
74333;PMS5003;62753;40.394;-80.022;2023-04-16T08:27:17;16;16;
74333;PMS5003;62753;40.394;-80.022;2023-04-16T08:29:43;20;19;
74333;PMS5003;62753;40.394;-80.022;2023-04-16T08:32:08;21;21;
74333;PMS5003;62753;40.394;-80.022;2023-04-16T08:34:34;20;19;
74333;PMS5003;62753;40.394;-80.022;2023-04-16T08:37:00;20;19;
74333;PMS5003;62753;40.394;-80.022;2023-04-16T08:39:25;21;20;
74333;PMS5003;62753;40.394;-80.022;2023-04-16T08:41:51;22;21;
74333;PMS5003;62753;40.394;-80.022;2023-04-16T08:44:19;18;17;
74333;PMS5003;62753;40.394;-80.022;2023-04-16T08:46:42;22;19;
74333;PMS5003;62753;40.394;-80.022;2023-04-16T08:49:08;20;20;
74333;PMS5003;62753;40.394;-80.022;2023-04-16T08:51:33;21;21;
74333;PMS5003;62753;40.394;-80.022;2023-04-16T08:53:58;18;18;
74333;PMS5003;62753;40.394;-80.022;2023-04-16T08:56:23;21;19;
74333;PMS5003;62753;40.394;-80.022;2023-04-16T08:58:49;23;20;
74333;PMS5003;62753;40.394;-80.022;2023-04-16T09:01:14;21;20;
74333;PMS5003;62753;40.394;-80.022;2023-04-16T09:03:39;19;18;
74333;PMS5003;62753;40.394;-80.022;2023-04-16T09:06:04;20;20;
74333;PMS5003;62753;40.394;-80.022;2023-04-16T09:08:30;22;22;
74333;PMS5003;62753;40.394;-80.022;2023-04-16T09:10:55;20;19;
74333;PMS5003;62753;40.394;-80.022;2023-04-16T09:13:20;22;22;
74333;PMS5003;62753;40.394;-80.022;2023-04-16T09:15:46;21;20;
74333;PMS5003;62753;40.394;-80.022;2023-04-16T09:18:12;21;20;
74333;PMS5003;62753;40.394;-80.022;2023-04-16T09:20:38;24;22;
74333;PMS5003;62753;40.394;-80.022;2023-04-16T09:23:03;23;21;
74333;PMS5003;62753;40.394;-80.022;2023-04-16T09:25:32;21;20;
74333;PMS5003;62753;40.394;-80.022;2023-04-16T09:27:54;21;21;
74333;PMS5003;62753;40.394;-80.022;2023-04-16T09:30:20;21;19;
74333;PMS5003;62753;40.394;-80.022;2023-04-16T09:32:44;21;20;
74333;PMS5003;62753;40.394;-80.022;2023-04-16T09:35:09;19;19;
74333;PMS5003;62753;40.394;-80.022;2023-04-16T09:37:35;21;21;
74333;PMS5003;62753;40.394;-80.022;2023-04-16T09:40:01;22;22;
74333;PMS5003;62753;40.394;-80.022;2023-04-16T09:42:27;21;21;
74333;PMS5003;62753;40.394;-80.022;2023-04-16T09:44:51;21;21;
74333;PMS5003;62753;40.394;-80.022;2023-04-16T09:47:17;26;18;
74333;PMS5003;62753;40.394;-80.022;2023-04-16T09:49:43;18;18;
74333;PMS5003;62753;40.394;-80.022;2023-04-16T09:52:09;22;21;
74333;PMS5003;62753;40.394;-80.022;2023-04-16T09:54:34;22;22;
74333;PMS5003;62753;40.394;-80.022;2023-04-16T09:56:59;20;20;
74333;PMS5003;62753;40.394;-80.022;2023-04-16T09:59:26;21;21;
74333;PMS5003;62753;40.394;-80.022;2023-04-16T10:01:50;19;19;
74333;PMS5003;62753;40.394;-80.022;2023-04-16T10:04:16;20;20;
74333;PMS5003;62753;40.394;-80.022;2023-04-16T10:06:42;21;20;
74333;PMS5003;62753;40.394;-80.022;2023-04-16T10:09:07;18;18;
74333;PMS5003;62753;40.394;-80.022;2023-04-16T10:11:33;20;19;
74333;PMS5003;62753;40.394;-80.022;2023-04-16T10:13:58;23;22;
74333;PMS5003;62753;40.394;-80.022;2023-04-16T10:16:23;24;21;
74333;PMS5003;62753;40.394;-80.022;2023-04-16T10:18:49;20;20;
74333;PMS5003;62753;40.394;-80.022;2023-04-16T10:21:15;28;24;
74333;PMS5003;62753;40.394;-80.022;2023-04-16T10:23:41;19;19;
74333;PMS5003;62753;40.394;-80.022;2023-04-16T10:26:05;18;17;
74333;PMS5003;62753;40.394;-80.022;2023-04-16T10:28:31;26;22;
74333;PMS5003;62753;40.394;-80.022;2023-04-16T10:30:57;22;21;
74333;PMS5003;62753;40.394;-80.022;2023-04-16T10:33:23;18;18;
74333;PMS5003;62753;40.394;-80.022;2023-04-16T10:35:48;19;19;
74333;PMS5003;62753;40.394;-80.022;2023-04-16T10:38:22;20;18;
74333;PMS5003;62753;40.394;-80.022;2023-04-16T10:40:38;19;19;
74333;PMS5003;62753;40.394;-80.022;2023-04-16T10:43:04;24;19;
74333;PMS5003;62753;40.394;-80.022;2023-04-16T10:45:29;21;20;
74333;PMS5003;62753;40.394;-80.022;2023-04-16T10:47:55;24;20;
74333;PMS5003;62753;40.394;-80.022;2023-04-16T10:50:20;21;20;
74333;PMS5003;62753;40.394;-80.022;2023-04-16T10:52:46;25;21;
74333;PMS5003;62753;40.394;-80.022;2023-04-16T10:55:14;18;18;
74333;PMS5003;62753;40.394;-80.022;2023-04-16T10:57:37;25;21;
74333;PMS5003;62753;40.394;-80.022;2023-04-16T11:00:04;21;19;
74333;PMS5003;62753;40.394;-80.022;2023-04-16T11:02:27;20;19;
74333;PMS5003;62753;40.394;-80.022;2023-04-16T11:04:53;19;19;
74333;PMS5003;62753;40.394;-80.022;2023-04-16T11:07:18;23;20;
74333;PMS5003;62753;40.394;-80.022;2023-04-16T11:09:45;20;20;
74333;PMS5003;62753;40.394;-80.022;2023-04-16T11:12:09;19;19;
74333;PMS5003;62753;40.394;-80.022;2023-04-16T11:14:34;22;21;
74333;PMS5003;62753;40.394;-80.022;2023-04-16T11:17:01;21;19;
74333;PMS5003;62753;40.394;-80.022;2023-04-16T11:19:25;20;19;
74333;PMS5003;62753;40.394;-80.022;2023-04-16T11:21:51;20;19;
74333;PMS5003;62753;40.394;-80.022;2023-04-16T11:24:16;23;21;
74333;PMS5003;62753;40.394;-80.022;2023-04-16T11:26:42;24;24;
74333;PMS5003;62753;40.394;-80.022;2023-04-16T11:31:33;23;21;
74333;PMS5003;62753;40.394;-80.022;2023-04-16T11:33:58;26;22;
74333;PMS5003;62753;40.394;-80.022;2023-04-16T11:36:24;18;18;
74333;PMS5003;62753;40.394;-80.022;2023-04-16T11:38:49;19;19;
74333;PMS5003;62753;40.394;-80.022;2023-04-16T11:41:18;21;20;
74333;PMS5003;62753;40.394;-80.022;2023-04-16T11:43:40;18;17;
74333;PMS5003;62753;40.394;-80.022;2023-04-16T11:46:05;20;19;
74333;PMS5003;62753;40.394;-80.022;2023-04-16T11:50:57;19;19;
74333;PMS5003;62753;40.394;-80.022;2023-04-16T11:53:22;19;18;
74333;PMS5003;62753;40.394;-80.022;2023-04-16T11:55:47;21;20;
74333;PMS5003;62753;40.394;-80.022;2023-04-16T11:58:14;20;19;
74333;PMS5003;62753;40.394;-80.022;2023-04-16T12:00:38;21;20;
74333;PMS5003;62753;40.394;-80.022;2023-04-16T12:03:04;24;23;
74333;PMS5003;62753;40.394;-80.022;2023-04-16T12:05:30;27;21;
74333;PMS5003;62753;40.394;-80.022;2023-04-16T12:07:54;21;20;
74333;PMS5003;62753;40.394;-80.022;2023-04-16T12:10:20;20;19;
74333;PMS5003;62753;40.394;-80.022;2023-04-16T12:12:46;19;18;
74333;PMS5003;62753;40.394;-80.022;2023-04-16T12:15:11;19;19;
74333;PMS5003;62753;40.394;-80.022;2023-04-16T12:17:36;21;21;
74333;PMS5003;62753;40.394;-80.022;2023-04-16T12:20:03;22;22;
74333;PMS5003;62753;40.394;-80.022;2023-04-16T12:22:28;18;18;
74333;PMS5003;62753;40.394;-80.022;2023-04-16T12:24:54;17;17;
74333;PMS5003;62753;40.394;-80.022;2023-04-16T12:27:18;20;20;
74333;PMS5003;62753;40.394;-80.022;2023-04-16T12:29:44;23;20;
74333;PMS5003;62753;40.394;-80.022;2023-04-16T12:34:48;17;16;
74333;PMS5003;62753;40.394;-80.022;2023-04-16T12:37:04;20;20;
74333;PMS5003;62753;40.394;-80.022;2023-04-16T12:39:24;21;19;
74333;PMS5003;62753;40.394;-80.022;2023-04-16T12:41:50;22;20;
74333;PMS5003;62753;40.394;-80.022;2023-04-16T12:44:16;20;16;
74333;PMS5003;62753;40.394;-80.022;2023-04-16T12:46:42;19;17;
74333;PMS5003;62753;40.394;-80.022;2023-04-16T12:49:07;18;17;
74333;PMS5003;62753;40.394;-80.022;2023-04-16T12:51:32;18;18;
74333;PMS5003;62753;40.394;-80.022;2023-04-16T12:53:58;16;15;
74333;PMS5003;62753;40.394;-80.022;2023-04-16T12:56:23;16;16;
74333;PMS5003;62753;40.394;-80.022;2023-04-16T12:58:49;16;16;
74333;PMS5003;62753;40.394;-80.022;2023-04-16T13:01:14;16;16;
74333;PMS5003;62753;40.394;-80.022;2023-04-16T13:03:40;16;15;
74333;PMS5003;62753;40.394;-80.022;2023-04-16T13:06:06;17;16;
74333;PMS5003;62753;40.394;-80.022;2023-04-16T13:08:31;18;17;
74333;PMS5003;62753;40.394;-80.022;2023-04-16T13:10:56;17;16;
74333;PMS5003;62753;40.394;-80.022;2023-04-16T13:13:22;15;15;
74333;PMS5003;62753;40.394;-80.022;2023-04-16T13:15:47;14;14;
74333;PMS5003;62753;40.394;-80.022;2023-04-16T13:18:13;13;12;
74333;PMS5003;62753;40.394;-80.022;2023-04-16T13:20:38;14;14;
74333;PMS5003;62753;40.394;-80.022;2023-04-16T13:23:04;16;16;
74333;PMS5003;62753;40.394;-80.022;2023-04-16T13:25:29;15;14;
74333;PMS5003;62753;40.394;-80.022;2023-04-16T13:27:55;19;14;
74333;PMS5003;62753;40.394;-80.022;2023-04-16T13:30:20;14;14;
74333;PMS5003;62753;40.394;-80.022;2023-04-16T13:32:45;14;14;
74333;PMS5003;62753;40.394;-80.022;2023-04-16T13:35:11;14;14;
74333;PMS5003;62753;40.394;-80.022;2023-04-16T13:37:36;13;12;
74333;PMS5003;62753;40.394;-80.022;2023-04-16T13:40:02;13;12;
74333;PMS5003;62753;40.394;-80.022;2023-04-16T13:42:27;13;12;
74333;PMS5003;62753;40.394;-80.022;2023-04-16T13:44:53;11;11;
74333;PMS5003;62753;40.394;-80.022;2023-04-16T13:47:18;12;12;
74333;PMS5003;62753;40.394;-80.022;2023-04-16T13:49:43;12;12;
74333;PMS5003;62753;40.394;-80.022;2023-04-16T13:52:08;16;15;
74333;PMS5003;62753;40.394;-80.022;2023-04-16T13:54:33;13;13;
74333;PMS5003;62753;40.394;-80.022;2023-04-16T13:56:58;10;10;
74333;PMS5003;62753;40.394;-80.022;2023-04-16T13:59:23;12;12;
74333;PMS5003;62753;40.394;-80.022;2023-04-16T14:01:48;12;11;
74333;PMS5003;62753;40.394;-80.022;2023-04-16T14:04:14;13;12;
74333;PMS5003;62753;40.394;-80.022;2023-04-16T14:06:39;13;12;
74333;PMS5003;62753;40.394;-80.022;2023-04-16T14:09:04;13;13;
74333;PMS5003;62753;40.394;-80.022;2023-04-16T14:11:29;12;12;
74333;PMS5003;62753;40.394;-80.022;2023-04-16T14:13:54;13;11;
74333;PMS5003;62753;40.394;-80.022;2023-04-16T14:16:20;10;10;
74333;PMS5003;62753;40.394;-80.022;2023-04-16T14:18:46;11;10;
74333;PMS5003;62753;40.394;-80.022;2023-04-16T14:21:11;15;13;
74333;PMS5003;62753;40.394;-80.022;2023-04-16T14:23:35;10;10;
74333;PMS5003;62753;40.394;-80.022;2023-04-16T14:26:00;9;9;
74333;PMS5003;62753;40.394;-80.022;2023-04-16T14:28:25;11;11;
74333;PMS5003;62753;40.394;-80.022;2023-04-16T14:30:50;13;12;
74333;PMS5003;62753;40.394;-80.022;2023-04-16T14:33:15;11;11;
74333;PMS5003;62753;40.394;-80.022;2023-04-16T14:35:41;11;11;
74333;PMS5003;62753;40.394;-80.022;2023-04-16T14:38:05;11;11;
74333;PMS5003;62753;40.394;-80.022;2023-04-16T14:40:31;9;9;
74333;PMS5003;62753;40.394;-80.022;2023-04-16T14:42:56;9;9;
74333;PMS5003;62753;40.394;-80.022;2023-04-16T14:45:21;11;11;
74333;PMS5003;62753;40.394;-80.022;2023-04-16T14:47:46;11;11;
74333;PMS5003;62753;40.394;-80.022;2023-04-16T14:50:11;10;10;
74333;PMS5003;62753;40.394;-80.022;2023-04-16T14:52:37;10;10;
74333;PMS5003;62753;40.394;-80.022;2023-04-16T14:55:02;10;9;
74333;PMS5003;62753;40.394;-80.022;2023-04-16T14:57:27;8;8;
74333;PMS5003;62753;40.394;-80.022;2023-04-16T14:59:52;9;9;
74333;PMS5003;62753;40.394;-80.022;2023-04-16T15:02:17;10;10;
74333;PMS5003;62753;40.394;-80.022;2023-04-16T15:04:42;8;8;
74333;PMS5003;62753;40.394;-80.022;2023-04-16T15:07:07;9;9;
74333;PMS5003;62753;40.394;-80.022;2023-04-16T15:09:33;9;9;
74333;PMS5003;62753;40.394;-80.022;2023-04-16T15:11:57;8;8;
74333;PMS5003;62753;40.394;-80.022;2023-04-16T15:14:22;10;10;
74333;PMS5003;62753;40.394;-80.022;2023-04-16T15:16:48;9;9;
74333;PMS5003;62753;40.394;-80.022;2023-04-16T15:19:13;12;12;
74333;PMS5003;62753;40.394;-80.022;2023-04-16T15:21:38;13;12;
74333;PMS5003;62753;40.394;-80.022;2023-04-16T15:24:03;12;12;
74333;PMS5003;62753;40.394;-80.022;2023-04-16T15:26:28;12;12;
74333;PMS5003;62753;40.394;-80.022;2023-04-16T15:28:53;12;12;
74333;PMS5003;62753;40.394;-80.022;2023-04-16T15:31:19;10;10;
74333;PMS5003;62753;40.394;-80.022;2023-04-16T15:33:44;11;11;
74333;PMS5003;62753;40.394;-80.022;2023-04-16T15:36:09;13;12;
74333;PMS5003;62753;40.394;-80.022;2023-04-16T15:38:34;7;7;
74333;PMS5003;62753;40.394;-80.022;2023-04-16T15:41:00;9;9;